Time;durP1;ratioP1;P1;durP2;ratioP2;P2;SDS_P1;SDS_P2;PMS_P1;PMS_P2;Temp;Humidity;BMP_temperature;BMP_pressure;BME280_temperature;BME280_humidity;BME280_pressure;Samples;Min_cycle;Max_cycle;Signal;HPM_P1;HPM_P2
2021/08/22 00:00:27;;;;;;;10.80;9.80;;;25.40;58.70;;;;;;4974142;28;20970;-52
2021/08/22 00:02:52;;;;;;;11.47;10.27;;;25.40;58.70;;;;;;4973458;28;20489;-50
2021/08/22 00:05:18;;;;;;;10.93;10.00;;;25.40;58.80;;;;;;4974546;28;20297;-51
2021/08/22 00:07:44;;;;;;;11.23;10.23;;;25.40;58.90;;;;;;4973791;28;20282;-50
2021/08/22 00:10:10;;;;;;;10.43;9.53;;;25.50;58.80;;;;;;4974275;28;20506;-53
2021/08/22 00:12:36;;;;;;;11.70;10.07;;;25.50;58.80;;;;;;4973010;28;20733;-48
2021/08/22 00:15:02;;;;;;;10.73;9.70;;;25.50;58.70;;;;;;4990164;28;20434;-48
2021/08/22 00:17:28;;;;;;;10.70;9.80;;;25.50;58.60;;;;;;4992982;28;20201;-48
2021/08/22 00:19:53;;;;;;;11.37;9.20;;;25.60;58.70;;;;;;4992102;28;20482;-49
2021/08/22 00:22:19;;;;;;;10.93;9.87;;;25.50;58.60;;;;;;4992536;28;20607;-49
2021/08/22 00:24:45;;;;;;;10.70;9.50;;;25.60;58.80;;;;;;4993447;28;20194;-52
2021/08/22 00:27:10;;;;;;;14.37;9.90;;;25.60;58.90;;;;;;4992882;28;20556;-48
2021/08/22 00:29:36;;;;;;;13.37;11.27;;;25.50;58.90;;;;;;4993190;28;20264;-48
2021/08/22 00:32:02;;;;;;;12.33;11.10;;;25.50;59.20;;;;;;4992701;28;20206;-49
2021/08/22 00:34:28;;;;;;;11.40;10.20;;;25.40;59.70;;;;;;4992559;28;20199;-51
2021/08/22 00:36:54;;;;;;;21.03;9.60;;;25.00;61.60;;;;;;4992746;28;20584;-52
2021/08/22 00:39:20;;;;;;;11.47;8.60;;;24.20;66.90;;;;;;4993168;28;20222;-49
2021/08/22 00:41:46;;;;;;;5.93;5.33;;;24.00;67.40;;;;;;4991010;28;20449;-52
2021/08/22 00:44:12;;;;;;;4.83;4.10;;;23.80;65.50;;;;;;4992896;28;20961;-51
2021/08/22 00:46:37;;;;;;;4.10;3.67;;;23.20;64.90;;;;;;4992540;28;20206;-49
2021/08/22 00:49:10;;;;;;;3.17;2.90;;;23.20;66.00;;;;;;4993156;28;20194;-48
2021/08/22 00:51:36;;;;;;;3.67;2.63;;;23.10;65.60;;;;;;4991186;28;20198;-50
2021/08/22 00:54:02;;;;;;;2.70;2.43;;;23.30;65.90;;;;;;4974975;28;20443;-49
2021/08/22 00:56:27;;;;;;;5.00;3.10;;;23.50;65.30;;;;;;4973543;28;20191;-52
2021/08/22 00:58:53;;;;;;;4.87;2.87;;;23.60;64.80;;;;;;4972911;28;20564;-52
2021/08/22 01:01:21;;;;;;;4.90;3.10;;;23.70;63.90;;;;;;4973863;28;20195;-48
2021/08/22 01:04:00;;;;;;;4.20;2.83;;;23.70;63.80;;;;;;4972166;28;20270;-53
2021/08/22 01:06:51;;;;;;;4.63;2.80;;;23.70;63.80;;;;;;4972833;28;20442;-50
2021/08/22 01:09:31;;;;;;;4.90;3.00;;;23.80;64.10;;;;;;4973479;28;20439;-48
2021/08/22 01:12:02;;;;;;;3.47;2.77;;;23.90;64.30;;;;;;4972421;28;20478;-49
2021/08/22 01:14:35;;;;;;;3.70;2.80;;;23.80;64.00;;;;;;4985546;28;20426;-48
2021/08/22 01:17:03;;;;;;;5.20;3.00;;;23.80;63.80;;;;;;4991725;28;20528;-47
2021/08/22 01:19:34;;;;;;;3.60;3.30;;;23.70;64.00;;;;;;4990229;28;20489;-48
2021/08/22 01:22:01;;;;;;;7.40;2.83;;;23.70;64.30;;;;;;4992033;28;20939;-48
2021/08/22 01:24:28;;;;;;;3.47;3.10;;;23.70;64.30;;;;;;4992187;28;20517;-52
2021/08/22 01:26:57;;;;;;;2.90;2.57;;;23.60;64.10;;;;;;4992091;28;20429;-48
2021/08/22 01:29:29;;;;;;;5.63;3.27;;;23.70;64.30;;;;;;4992422;28;20430;-49
2021/08/22 01:31:59;;;;;;;4.93;3.00;;;23.50;64.60;;;;;;4991857;28;20449;-47
2021/08/22 01:34:26;;;;;;;8.70;3.00;;;23.50;65.40;;;;;;4990650;28;20841;-48
2021/08/22 01:36:52;;;;;;;4.30;2.90;;;23.50;65.50;;;;;;4991796;28;20441;-51
2021/08/22 01:39:19;;;;;;;6.50;2.87;;;23.60;66.30;;;;;;4992414;28;20501;-48
2021/08/22 01:41:48;;;;;;;5.20;2.90;;;23.60;65.60;;;;;;4991835;28;20440;-47
2021/08/22 01:44:17;;;;;;;2.83;2.60;;;23.60;64.80;;;;;;4991862;28;20433;-48
2021/08/22 01:46:44;;;;;;;5.60;2.50;;;23.50;64.20;;;;;;4991832;28;20426;-47
2021/08/22 01:49:12;;;;;;;4.43;2.80;;;23.40;64.10;;;;;;4992269;28;20426;-47
2021/08/22 01:51:39;;;;;;;4.00;3.20;;;23.50;64.00;;;;;;4992577;28;20918;-48
2021/08/22 01:54:10;;;;;;;4.90;3.13;;;23.30;64.00;;;;;;4978359;28;20431;-47
2021/08/22 01:56:40;;;;;;;6.33;3.00;;;23.20;64.90;;;;;;4976182;28;20426;-48
2021/08/22 01:59:06;;;;;;;3.50;3.20;;;23.20;65.40;;;;;;4977088;28;20485;-47
2021/08/22 02:01:34;;;;;;;5.30;2.90;;;23.10;66.20;;;;;;4973933;28;20450;-50
2021/08/22 02:04:05;;;;;;;5.30;3.27;;;23.00;66.60;;;;;;4976109;28;20427;-47
2021/08/22 02:06:49;;;;;;;4.00;3.63;;;22.70;67.60;;;;;;4976012;28;20918;-47
2021/08/22 02:09:31;;;;;;;3.40;3.10;;;22.40;68.90;;;;;;4976655;28;20441;-47
2021/08/22 02:12:02;;;;;;;3.60;3.30;;;22.30;70.10;;;;;;4975748;28;20478;-47
2021/08/22 02:14:30;;;;;;;3.60;3.30;;;22.40;69.80;;;;;;4989237;28;20468;-47
2021/08/22 02:16:56;;;;;;;3.10;2.80;;;22.40;69.70;;;;;;4994054;28;21025;-47
2021/08/22 02:19:24;;;;;;;5.47;3.53;;;22.40;70.40;;;;;;4994573;28;20492;-48
2021/08/22 02:21:52;;;;;;;4.20;3.40;;;22.30;69.70;;;;;;4994841;28;20446;-48
2021/08/22 02:24:18;;;;;;;3.73;3.10;;;22.40;69.80;;;;;;4995214;28;20487;-47
2021/08/22 02:26:44;;;;;;;4.33;3.67;;;22.30;69.70;;;;;;4993290;28;20511;-51
2021/08/22 02:29:10;;;;;;;5.03;3.70;;;22.30;69.80;;;;;;4995711;28;20458;-53
2021/08/22 02:31:35;;;;;;;5.20;3.30;;;22.20;70.20;;;;;;4995043;28;20848;-53
2021/08/22 02:34:01;;;;;;;4.60;3.43;;;21.90;71.60;;;;;;4995002;28;20206;-51
2021/08/22 02:36:28;;;;;;;4.53;3.20;;;21.80;72.30;;;;;;4995627;28;20190;-53
2021/08/22 02:38:54;;;;;;;5.70;3.37;;;21.80;72.20;;;;;;4994821;28;20222;-51
2021/08/22 02:41:19;;;;;;;4.20;3.33;;;22.00;71.70;;;;;;4995309;28;20827;-52
2021/08/22 02:43:45;;;;;;;3.87;3.50;;;21.80;71.80;;;;;;4994066;28;20437;-51
2021/08/22 02:46:11;;;;;;;4.73;4.33;;;21.70;72.50;;;;;;4995245;28;20191;-52
2021/08/22 02:48:37;;;;;;;5.10;3.43;;;21.70;72.70;;;;;;4994788;28;21048;-52
2021/08/22 02:51:03;;;;;;;6.20;4.20;;;21.60;72.80;;;;;;4994969;28;20639;-52
2021/08/22 02:53:29;;;;;;;4.27;3.80;;;21.70;72.80;;;;;;4979747;28;20666;-49
2021/08/22 02:55:54;;;;;;;4.83;4.30;;;21.80;72.30;;;;;;4975653;28;20187;-50
2021/08/22 02:58:20;;;;;;;4.07;3.70;;;21.70;72.20;;;;;;4975301;28;20200;-53
2021/08/22 03:00:46;;;;;;;4.60;3.80;;;21.60;72.70;;;;;;4975247;28;20238;-52
2021/08/22 03:03:12;;;;;;;4.37;3.50;;;21.70;72.60;;;;;;4973463;28;20762;-52
2021/08/22 03:05:38;;;;;;;3.53;3.20;;;21.40;73.30;;;;;;4975701;28;20285;-52
2021/08/22 03:08:04;;;;;;;3.93;3.60;;;21.50;73.50;;;;;;4975038;28;20926;-53
2021/08/22 03:10:31;;;;;;;3.60;3.30;;;21.50;73.30;;;;;;4975651;28;20192;-52
2021/08/22 03:12:57;;;;;;;5.80;3.43;;;21.40;73.60;;;;;;4975122;28;20887;-51
2021/08/22 03:15:22;;;;;;;4.57;4.17;;;21.30;74.40;;;;;;4975775;28;20546;-53
2021/08/22 03:17:48;;;;;;;7.50;4.50;;;21.40;74.50;;;;;;4974645;28;20435;-53
2021/08/22 03:20:14;;;;;;;5.53;3.67;;;21.50;73.60;;;;;;4979968;28;20293;-49
2021/08/22 03:22:44;;;;;;;5.63;3.77;;;21.40;73.80;;;;;;4993838;28;20194;-52
2021/08/22 03:25:11;;;;;;;7.57;3.60;;;21.20;75.00;;;;;;4994589;28;20430;-52
2021/08/22 03:27:37;;;;;;;5.03;3.30;;;21.30;74.70;;;;;;4993815;28;20433;-50
2021/08/22 03:30:04;;;;;;;4.50;4.07;;;21.30;74.80;;;;;;4994500;28;20430;-48
2021/08/22 03:32:29;;;;;;;4.87;3.57;;;21.40;74.50;;;;;;4993438;28;20429;-52
2021/08/22 03:34:56;;;;;;;4.73;3.63;;;21.40;74.10;;;;;;4994556;28;20456;-48
2021/08/22 03:37:22;;;;;;;4.03;3.53;;;21.50;74.00;;;;;;4993743;28;20257;-48
2021/08/22 03:39:47;;;;;;;3.57;3.23;;;21.50;74.00;;;;;;4994260;28;20469;-51
2021/08/22 03:42:13;;;;;;;4.07;3.67;;;21.70;73.50;;;;;;4993428;28;20797;-48
2021/08/22 03:44:39;;;;;;;4.80;4.30;;;21.90;73.50;;;;;;4994391;28;20668;-48
2021/08/22 03:47:04;;;;;;;5.47;3.50;;;21.90;72.70;;;;;;4991728;28;20195;-48
2021/08/22 03:49:30;;;;;;;4.50;4.10;;;21.90;72.60;;;;;;4994079;28;20196;-48
2021/08/22 03:51:56;;;;;;;4.30;3.63;;;22.00;72.40;;;;;;4992952;28;20568;-47
2021/08/22 03:54:21;;;;;;;4.20;3.80;;;22.00;72.40;;;;;;4974836;28;20199;-48
2021/08/22 03:56:47;;;;;;;4.43;3.83;;;21.90;72.60;;;;;;4973752;28;20254;-48
2021/08/22 03:59:12;;;;;;;4.80;3.70;;;21.80;72.80;;;;;;4974502;28;20274;-48
2021/08/22 04:01:38;;;;;;;3.70;3.27;;;21.70;72.70;;;;;;4973974;28;20234;-49
2021/08/22 04:04:05;;;;;;;4.10;3.73;;;21.80;72.80;;;;;;4974108;28;20568;-49
2021/08/22 04:06:31;;;;;;;5.37;4.30;;;21.80;72.50;;;;;;4973981;28;20247;-50
2021/08/22 04:09:00;;;;;;;4.90;4.40;;;21.70;72.70;;;;;;4973793;28;20434;-48
2021/08/22 04:11:27;;;;;;;4.60;3.80;;;21.70;73.30;;;;;;4974273;28;20523;-48
2021/08/22 04:13:53;;;;;;;5.20;3.90;;;21.70;73.10;;;;;;4979768;28;20518;-51
2021/08/22 04:16:19;;;;;;;5.77;3.90;;;21.80;72.70;;;;;;4993472;28;20480;-49
2021/08/22 04:18:44;;;;;;;5.23;4.73;;;21.70;72.90;;;;;;4993109;28;20918;-48
2021/08/22 04:21:10;;;;;;;6.93;4.70;;;21.80;72.60;;;;;;4991998;28;20247;-48
2021/08/22 04:23:37;;;;;;;6.50;3.70;;;22.00;72.30;;;;;;4992543;28;20195;-48
2021/08/22 04:26:02;;;;;;;3.80;3.50;;;22.10;71.60;;;;;;4993304;28;20191;-47
2021/08/22 04:28:28;;;;;;;4.40;3.83;;;22.30;71.20;;;;;;4992826;28;20425;-47
2021/08/22 04:30:53;;;;;;;4.20;3.80;;;22.40;71.00;;;;;;4993365;28;20198;-48
2021/08/22 04:33:19;;;;;;;5.87;3.73;;;22.40;70.50;;;;;;4992568;28;20214;-52
2021/08/22 04:35:45;;;;;;;5.00;4.43;;;22.50;70.40;;;;;;4993293;28;20248;-50
2021/08/22 04:38:10;;;;;;;4.50;3.50;;;22.50;70.30;;;;;;4992086;28;20198;-49
2021/08/22 04:40:39;;;;;;;4.73;4.23;;;22.60;70.30;;;;;;4992181;28;20221;-47
2021/08/22 04:43:05;;;;;;;6.00;4.27;;;22.50;70.20;;;;;;4992082;28;20198;-48
2021/08/22 04:45:31;;;;;;;4.70;4.10;;;22.50;70.40;;;;;;4992769;28;20449;-48
2021/08/22 04:47:57;;;;;;;5.63;4.10;;;22.60;70.20;;;;;;4992420;28;20795;-51
2021/08/22 04:50:22;;;;;;;4.87;3.70;;;22.30;70.70;;;;;;4993102;28;20194;-49
2021/08/22 04:52:48;;;;;;;5.40;4.10;;;22.40;71.00;;;;;;4984365;28;20270;-47
2021/08/22 04:55:13;;;;;;;8.13;4.33;;;22.50;70.70;;;;;;4973286;28;20218;-47
2021/08/22 04:57:39;;;;;;;3.80;3.50;;;22.40;70.60;;;;;;4972951;28;20199;-49
2021/08/22 05:00:05;;;;;;;3.80;3.50;;;22.20;70.90;;;;;;4973522;28;20705;-48
2021/08/22 05:02:31;;;;;;;4.00;3.60;;;21.90;72.40;;;;;;4972439;28;20187;-50
2021/08/22 05:04:56;;;;;;;7.10;4.60;;;22.10;72.60;;;;;;4971573;28;20426;-48
2021/08/22 05:07:22;;;;;;;5.63;5.10;;;22.00;72.50;;;;;;4972775;28;20667;-47
2021/08/22 05:09:47;;;;;;;4.97;4.20;;;21.80;73.20;;;;;;4973531;28;20278;-47
2021/08/22 05:12:13;;;;;;;6.53;4.50;;;21.50;74.90;;;;;;4972383;28;20243;-47
2021/08/22 05:14:38;;;;;;;15.33;4.23;;;21.70;74.50;;;;;;4987184;28;20199;-48
2021/08/22 05:17:04;;;;;;;5.13;4.03;;;21.70;74.50;;;;;;4991996;28;20195;-48
2021/08/22 05:19:30;;;;;;;6.33;4.43;;;21.50;75.40;;;;;;4990871;28;20272;-50
2021/08/22 05:21:55;;;;;;;4.47;4.07;;;21.60;75.80;;;;;;4990342;28;20233;-47
2021/08/22 05:24:21;;;;;;;8.03;4.13;;;21.70;75.70;;;;;;4992692;28;20270;-47
2021/08/22 05:26:47;;;;;;;5.40;4.60;;;21.90;75.10;;;;;;4991324;28;20260;-52
2021/08/22 05:29:13;;;;;;;5.10;4.60;;;22.10;74.30;;;;;;4992591;28;20776;-53
2021/08/22 05:31:38;;;;;;;5.97;5.43;;;22.30;73.60;;;;;;4989984;28;20269;-52
2021/08/22 05:34:04;;;;;;;4.60;4.20;;;22.30;72.90;;;;;;4991915;28;20225;-53
2021/08/22 05:36:35;;;;;;;4.77;4.23;;;22.20;72.70;;;;;;4992332;28;20554;-52
2021/08/22 05:39:01;;;;;;;6.13;3.93;;;22.00;73.40;;;;;;4992000;28;20214;-53
2021/08/22 05:41:27;;;;;;;11.33;4.67;;;21.90;74.10;;;;;;4992096;28;20498;-49
2021/08/22 05:43:52;;;;;;;3.97;3.67;;;21.90;74.10;;;;;;4991504;28;20453;-52
2021/08/22 05:46:18;;;;;;;10.47;5.07;;;22.00;73.90;;;;;;4992267;28;20191;-49
2021/08/22 05:48:43;;;;;;;4.33;3.90;;;22.10;73.80;;;;;;4991780;28;20199;-52
2021/08/22 05:51:20;;;;;;;5.70;5.20;;;22.20;73.40;;;;;;4992329;28;20198;-50
2021/08/22 05:53:47;;;;;;;4.87;4.20;;;22.20;72.90;;;;;;4975805;28;20202;-49
2021/08/22 05:56:13;;;;;;;5.63;4.13;;;22.20;73.10;;;;;;4972937;28;20447;-52
2021/08/22 05:58:39;;;;;;;4.17;3.87;;;22.30;73.20;;;;;;4970336;28;20434;-52
2021/08/22 06:01:05;;;;;;;3.80;3.40;;;22.40;72.60;;;;;;4972540;28;20486;-48
2021/08/22 06:03:31;;;;;;;5.23;4.43;;;22.60;72.20;;;;;;4970533;28;20250;-52
2021/08/22 06:05:57;;;;;;;4.60;4.10;;;22.60;71.90;;;;;;4972794;28;20660;-51
2021/08/22 06:08:23;;;;;;;5.10;4.60;;;22.70;71.90;;;;;;4972284;28;20431;-49
2021/08/22 06:10:48;;;;;;;4.90;4.40;;;22.80;71.70;;;;;;4972451;28;20430;-51
2021/08/22 06:13:14;;;;;;;5.43;4.97;;;22.90;71.50;;;;;;4974461;28;20264;-53
2021/08/22 06:15:40;;;;;;;4.63;4.23;;;22.90;71.30;;;;;;4992147;28;20186;-52
2021/08/22 06:18:05;;;;;;;4.27;3.67;;;22.90;71.40;;;;;;4991294;28;20194;-48
2021/08/22 06:20:31;;;;;;;4.27;3.83;;;23.00;71.50;;;;;;4990417;28;20292;-48
2021/08/22 06:22:57;;;;;;;5.80;4.30;;;23.00;71.50;;;;;;4990964;28;20198;-50
2021/08/22 06:25:22;;;;;;;4.90;4.43;;;23.10;71.10;;;;;;4990468;28;20222;-51
2021/08/22 06:27:48;;;;;;;6.37;3.90;;;23.20;70.90;;;;;;4991377;28;20245;-52
2021/08/22 06:30:14;;;;;;;4.33;3.93;;;23.20;71.60;;;;;;4991653;28;20195;-47
2021/08/22 06:32:40;;;;;;;4.50;4.10;;;23.20;71.60;;;;;;4990840;28;20199;-49
2021/08/22 06:35:06;;;;;;;4.50;4.10;;;23.30;71.20;;;;;;4991829;28;20512;-52
2021/08/22 06:37:32;;;;;;;5.20;4.23;;;23.20;71.30;;;;;;4991937;28;20214;-47
2021/08/22 06:40:02;;;;;;;6.30;4.50;;;23.10;72.20;;;;;;4995158;28;20535;-47
2021/08/22 06:42:29;;;;;;;5.57;4.90;;;23.10;72.60;;;;;;4994485;28;20218;-52
2021/08/22 06:44:55;;;;;;;4.93;4.53;;;23.40;72.40;;;;;;4995230;28;20433;-47
2021/08/22 06:47:20;;;;;;;4.50;4.07;;;23.60;72.00;;;;;;4995063;28;20445;-48
2021/08/22 06:49:46;;;;;;;6.13;4.57;;;23.50;70.90;;;;;;4995307;28;20205;-49
2021/08/22 06:52:12;;;;;;;5.23;4.50;;;23.40;70.40;;;;;;4989784;28;20195;-50
2021/08/22 06:54:41;;;;;;;4.60;3.87;;;23.40;69.70;;;;;;4975746;28;20199;-47
2021/08/22 06:57:13;;;;;;;4.60;4.20;;;23.40;69.40;;;;;;4975322;28;20462;-50
2021/08/22 06:59:39;;;;;;;5.57;4.93;;;23.60;69.50;;;;;;4975686;28;20466;-52
2021/08/22 07:02:06;;;;;;;5.23;4.73;;;23.50;70.00;;;;;;4974972;28;20427;-50
2021/08/22 07:04:31;;;;;;;4.93;4.53;;;23.60;69.80;;;;;;4975627;28;20906;-51
2021/08/22 07:06:57;;;;;;;5.37;4.47;;;23.70;69.80;;;;;;4975011;28;20430;-52
2021/08/22 07:09:23;;;;;;;5.80;4.73;;;23.70;70.40;;;;;;4975364;28;20210;-52
2021/08/22 07:11:48;;;;;;;5.47;4.77;;;23.90;70.20;;;;;;4974700;28;20619;-52
2021/08/22 07:14:14;;;;;;;5.50;5.00;;;24.00;70.00;;;;;;4986418;28;20325;-51
2021/08/22 07:16:40;;;;;;;4.60;4.20;;;24.00;69.80;;;;;;4994098;28;20195;-51
2021/08/22 07:19:06;;;;;;;6.60;4.70;;;23.90;70.20;;;;;;4993253;28;20190;-53
2021/08/22 07:21:33;;;;;;;4.93;4.53;;;23.80;71.00;;;;;;4992034;28;20474;-51
2021/08/22 07:23:58;;;;;;;5.93;4.70;;;23.80;71.60;;;;;;4994328;28;20441;-52
2021/08/22 07:26:24;;;;;;;5.27;4.77;;;23.70;72.00;;;;;;4994544;28;20853;-52
2021/08/22 07:28:50;;;;;;;4.63;4.17;;;23.90;71.80;;;;;;4994167;28;20554;-51
2021/08/22 07:31:15;;;;;;;8.10;4.93;;;23.90;71.90;;;;;;4994628;28;20194;-52
2021/08/22 07:33:42;;;;;;;8.70;5.37;;;23.90;72.20;;;;;;4993440;28;20190;-51
2021/08/22 07:36:07;;;;;;;7.03;4.80;;;24.00;72.20;;;;;;4994380;28;20195;-53
2021/08/22 07:38:33;;;;;;;5.57;5.07;;;24.10;72.00;;;;;;4993811;28;20430;-52
2021/08/22 07:40:59;;;;;;;6.47;4.70;;;24.20;71.70;;;;;;4993964;28;20238;-53
2021/08/22 07:43:28;;;;;;;6.40;5.53;;;24.20;71.60;;;;;;4992665;28;20550;-52
2021/08/22 07:45:53;;;;;;;5.03;4.63;;;24.30;71.40;;;;;;4993713;28;20191;-53
2021/08/22 07:48:19;;;;;;;5.00;4.60;;;24.20;68.20;;;;;;4993828;28;20429;-52
2021/08/22 07:50:45;;;;;;;5.77;5.13;;;24.40;68.50;;;;;;4993748;28;20607;-53
2021/08/22 07:53:10;;;;;;;5.17;4.67;;;24.40;69.10;;;;;;4982695;28;20278;-53
2021/08/22 07:55:36;;;;;;;4.60;4.20;;;24.40;67.90;;;;;;4974354;28;20195;-52
2021/08/22 07:58:02;;;;;;;4.73;4.23;;;24.70;68.00;;;;;;4974060;28;20253;-53
2021/08/22 08:00:27;;;;;;;4.70;4.30;;;24.90;67.10;;;;;;4974387;28;20314;-53
2021/08/22 08:02:53;;;;;;;4.33;4.03;;;25.10;67.00;;;;;;4973694;28;20195;-53
2021/08/22 08:05:19;;;;;;;8.50;5.07;;;25.20;66.10;;;;;;4974598;28;20195;-52
2021/08/22 08:07:44;;;;;;;5.83;5.30;;;25.40;64.90;;;;;;4973843;28;20203;-53
2021/08/22 08:10:10;;;;;;;5.20;4.70;;;25.40;64.50;;;;;;4972610;28;20195;-53
2021/08/22 08:12:36;;;;;;;7.27;5.17;;;25.60;64.90;;;;;;4973085;28;20314;-52
2021/08/22 08:15:03;;;;;;;5.40;4.10;;;25.70;65.30;;;;;;4991530;28;20426;-52
2021/08/22 08:17:28;;;;;;;5.27;4.77;;;25.80;64.30;;;;;;4993204;28;20235;-52
2021/08/22 08:19:54;;;;;;;5.03;4.63;;;25.90;63.90;;;;;;4991744;28;20522;-52
2021/08/22 08:22:20;;;;;;;5.30;4.20;;;26.10;63.70;;;;;;4992468;28;20229;-51
2021/08/22 08:24:46;;;;;;;5.23;4.83;;;26.10;63.20;;;;;;4993574;28;20225;-53
2021/08/22 08:27:11;;;;;;;4.77;4.17;;;26.20;63.10;;;;;;4992891;28;20222;-50
2021/08/22 08:29:37;;;;;;;4.20;3.90;;;26.20;61.70;;;;;;4993303;28;20418;-53
2021/08/22 08:32:03;;;;;;;5.43;4.30;;;26.30;60.90;;;;;;4992202;28;20194;-53
2021/08/22 08:34:29;;;;;;;5.10;4.60;;;26.40;62.30;;;;;;4993157;28;20195;-53
2021/08/22 08:36:54;;;;;;;4.60;4.20;;;26.50;61.60;;;;;;4991109;28;20226;-52
2021/08/22 08:39:20;;;;;;;5.40;4.90;;;26.60;61.30;;;;;;4993126;28;20237;-52
2021/08/22 08:41:46;;;;;;;5.50;5.00;;;26.80;61.30;;;;;;4992128;28;20638;-51
2021/08/22 08:44:13;;;;;;;6.50;5.50;;;26.80;60.30;;;;;;4993122;28;20186;-52
2021/08/22 08:46:54;;;;;;;7.30;4.80;;;26.80;60.10;;;;;;4992673;28;20570;-52
2021/08/22 08:49:26;;;;;;;4.33;4.03;;;26.80;59.80;;;;;;4993003;28;20442;-52
2021/08/22 08:52:28;;;;;;;5.70;4.67;;;26.80;60.00;;;;;;4991984;28;20441;-52
2021/08/22 08:55:02;;;;;;;5.47;4.50;;;26.80;59.90;;;;;;4973460;28;20442;-53
2021/08/22 08:57:30;;;;;;;4.40;4.10;;;26.70;59.80;;;;;;4971649;28;20430;-52
2021/08/22 08:59:56;;;;;;;5.23;4.73;;;26.80;59.90;;;;;;4973062;28;20490;-52
2021/08/22 09:02:21;;;;;;;5.10;4.70;;;26.90;61.30;;;;;;4971629;28;20449;-51
2021/08/22 09:05:02;;;;;;;6.13;4.90;;;27.00;60.30;;;;;;4971829;28;20199;-52
2021/08/22 09:07:40;;;;;;;5.97;5.47;;;27.00;60.00;;;;;;4972658;28;20286;-52
2021/08/22 09:10:30;;;;;;;6.00;5.40;;;27.00;60.30;;;;;;4973372;28;20433;-53
2021/08/22 09:13:35;;;;;;;5.20;4.70;;;27.00;60.40;;;;;;4972543;28;20844;-52
2021/08/22 09:16:13;;;;;;;6.70;5.00;;;27.00;60.60;;;;;;4973322;28;20434;-50
2021/08/22 09:19:15;;;;;;;5.23;4.43;;;27.10;61.40;;;;;;4972778;28;20426;-52
2021/08/22 09:22:18;;;;;;;4.80;4.40;;;27.10;61.10;;;;;;4972298;28;20557;-52
2021/08/22 09:24:43;;;;;;;5.20;4.70;;;27.00;61.40;;;;;;4973316;28;20426;-52
2021/08/22 09:27:46;;;;;;;5.77;4.20;;;27.00;61.70;;;;;;4972532;28;20934;-52
2021/08/22 09:30:30;;;;;;;5.33;4.83;;;27.00;61.50;;;;;;4971381;28;20203;-53
2021/08/22 09:33:34;;;;;;;4.90;4.50;;;26.90;61.30;;;;;;4972006;28;20732;-54
2021/08/22 09:36:24;;;;;;;4.60;4.10;;;26.80;61.10;;;;;;4972830;28;20948;-52
2021/08/22 09:39:04;;;;;;;4.73;4.40;;;26.90;60.90;;;;;;4972594;28;20431;-50
2021/08/22 09:42:04;;;;;;;5.90;5.30;;;26.80;61.50;;;;;;4972535;28;20493;-52
2021/08/22 09:45:03;;;;;;;5.70;5.20;;;26.50;62.30;;;;;;4972569;28;20427;-53
2021/08/22 09:47:47;;;;;;;5.70;5.20;;;26.50;63.10;;;;;;4972210;28;20437;-49
2021/08/22 09:50:18;;;;;;;5.83;5.33;;;26.40;63.10;;;;;;4972802;28;20871;-51
2021/08/22 09:53:20;;;;;;;5.40;4.97;;;26.40;63.30;;;;;;4978694;28;20799;-53
2021/08/22 09:56:39;;;;;;;7.50;5.63;;;26.40;63.10;;;;;;4971493;28;20948;-51
2021/08/22 09:59:04;;;;;;;5.80;5.27;;;26.40;62.50;;;;;;4970533;28;20427;-52
2021/08/22 10:01:45;;;;;;;5.50;5.03;;;26.30;63.30;;;;;;4972060;28;20970;-53
2021/08/22 10:04:23;;;;;;;5.67;5.10;;;26.00;62.20;;;;;;4972664;28;20198;-51
2021/08/22 10:06:54;;;;;;;6.93;5.97;;;25.70;62.60;;;;;;4972388;28;20429;-52
2021/08/22 10:09:24;;;;;;;5.77;5.27;;;25.70;62.80;;;;;;4972697;28;21689;-51
2021/08/22 10:12:00;;;;;;;6.27;5.67;;;25.70;61.70;;;;;;4971554;28;20466;-49
2021/08/22 10:14:27;;;;;;;6.23;5.70;;;25.60;61.20;;;;;;4989263;28;20583;-51
2021/08/22 10:16:54;;;;;;;6.53;5.93;;;25.60;61.40;;;;;;4993999;28;20440;-53
2021/08/22 10:19:27;;;;;;;6.20;5.60;;;25.30;61.90;;;;;;4995006;28;20434;-48
2021/08/22 10:22:16;;;;;;;6.00;5.50;;;25.40;61.90;;;;;;4982246;28;20810;-51
2021/08/22 10:24:43;;;;;;;6.17;5.67;;;25.60;62.20;;;;;;4995343;28;20525;-49
2021/08/22 10:27:11;;;;;;;6.80;5.33;;;25.50;62.40;;;;;;4995178;28;20783;-50
2021/08/22 10:29:49;;;;;;;6.13;5.63;;;25.70;62.20;;;;;;4995627;28;20442;-51
2021/08/22 10:32:15;;;;;;;7.10;6.40;;;25.80;62.30;;;;;;4994360;28;20473;-50
2021/08/22 10:34:42;;;;;;;6.60;6.10;;;25.90;62.30;;;;;;4994446;28;20481;-50
2021/08/22 10:37:24;;;;;;;6.83;6.23;;;26.00;62.90;;;;;;4994985;28;20445;-52
2021/08/22 10:39:50;;;;;;;5.73;5.13;;;26.10;63.30;;;;;;4995573;28;20480;-50
2021/08/22 10:42:20;;;;;;;9.50;6.47;;;26.10;63.50;;;;;;4994246;28;20430;-48
2021/08/22 10:44:46;;;;;;;10.47;6.37;;;26.10;63.70;;;;;;4995472;28;20253;-52
2021/08/22 10:47:19;;;;;;;7.60;6.80;;;26.10;63.70;;;;;;4994884;28;20513;-51
2021/08/22 10:49:50;;;;;;;8.23;6.70;;;26.00;64.00;;;;;;4993864;28;20460;-52
2021/08/22 10:52:21;;;;;;;7.47;6.70;;;26.00;64.40;;;;;;4991042;28;20449;-48
2021/08/22 10:55:05;;;;;;;9.37;6.80;;;25.90;65.40;;;;;;4975902;28;20434;-51
2021/08/22 10:57:49;;;;;;;6.33;5.73;;;25.80;65.70;;;;;;4974951;28;20941;-48
2021/08/22 11:00:30;;;;;;;9.27;7.20;;;25.70;65.70;;;;;;4975640;28;20490;-53
2021/08/22 11:02:57;;;;;;;6.40;5.80;;;25.60;65.90;;;;;;4974867;28;20828;-50
2021/08/22 11:05:27;;;;;;;6.40;5.80;;;25.30;66.40;;;;;;4975714;28;20457;-50
2021/08/22 11:07:55;;;;;;;7.30;5.70;;;25.30;66.60;;;;;;4975070;28;20799;-50
2021/08/22 11:10:27;;;;;;;5.53;5.03;;;25.30;66.60;;;;;;4975742;28;20441;-52
2021/08/22 11:12:53;;;;;;;6.30;5.70;;;25.30;66.10;;;;;;4974231;28;20490;-52
2021/08/22 11:15:26;;;;;;;6.53;5.90;;;25.30;66.10;;;;;;4993373;28;20430;-52
2021/08/22 11:17:57;;;;;;;7.30;6.60;;;25.20;66.50;;;;;;4994366;28;20952;-52
2021/08/22 11:20:27;;;;;;;8.73;6.13;;;25.20;67.10;;;;;;4992899;28;20949;-50
2021/08/22 11:23:16;;;;;;;7.20;6.50;;;25.10;67.60;;;;;;4993425;28;20426;-52
2021/08/22 11:25:42;;;;;;;6.27;5.77;;;25.00;68.30;;;;;;4993932;28;20441;-50
2021/08/22 11:28:16;;;;;;;3.03;2.83;;;24.80;68.60;;;;;;4994162;28;20422;-51
2021/08/22 11:30:43;;;;;;;2.90;2.70;;;24.30;65.60;;;;;;4994762;28;20453;-51
2021/08/22 11:33:10;;;;;;;2.20;1.80;;;24.20;64.30;;;;;;4993613;28;20426;-52
2021/08/22 11:35:38;;;;;;;2.10;2.00;;;24.10;64.30;;;;;;4994370;28;20519;-52
2021/08/22 11:38:04;;;;;;;1.80;1.70;;;24.10;64.20;;;;;;4992430;28;20434;-51
2021/08/22 11:40:31;;;;;;;1.97;1.80;;;24.20;63.40;;;;;;4994047;28;20497;-52
2021/08/22 11:42:59;;;;;;;2.20;1.70;;;24.30;62.80;;;;;;4991815;28;20430;-51
2021/08/22 11:45:27;;;;;;;1.60;1.50;;;24.30;62.60;;;;;;4994428;28;20480;-52
2021/08/22 11:47:54;;;;;;;3.03;1.50;;;24.30;62.80;;;;;;4993786;28;20430;-53
2021/08/22 11:50:23;;;;;;;2.20;1.40;;;24.30;63.10;;;;;;4994044;28;20434;-52
2021/08/22 11:52:51;;;;;;;4.67;1.93;;;24.30;62.90;;;;;;4986095;28;20434;-52
2021/08/22 11:55:19;;;;;;;2.47;1.70;;;24.30;63.10;;;;;;4974546;28;20772;-51
2021/08/22 11:57:45;;;;;;;2.60;2.07;;;24.30;63.40;;;;;;4974176;28;20441;-52
2021/08/22 12:00:14;;;;;;;2.30;1.43;;;24.30;63.80;;;;;;4974519;28;20569;-49
2021/08/22 12:02:57;;;;;;;2.20;1.73;;;24.30;64.00;;;;;;4973493;28;20196;-52
2021/08/22 12:05:27;;;;;;;2.23;1.70;;;24.30;64.50;;;;;;4974516;28;20430;-49
2021/08/22 12:08:10;;;;;;;1.80;1.70;;;24.30;64.50;;;;;;4973837;28;20804;-53
2021/08/22 12:10:41;;;;;;;1.47;1.37;;;24.40;64.80;;;;;;4980827;28;20469;-51
2021/08/22 12:13:33;;;;;;;2.73;1.47;;;24.40;65.20;;;;;;4992381;28;20568;-48
2021/08/22 12:15:59;;;;;;;2.23;2.03;;;24.50;64.70;;;;;;4990946;28;20448;-49
2021/08/22 12:18:30;;;;;;;1.90;1.80;;;24.50;64.70;;;;;;4992960;28;20953;-51
2021/08/22 12:21:09;;;;;;;2.03;1.93;;;24.60;64.80;;;;;;4992206;28;20482;-49
2021/08/22 12:23:36;;;;;;;2.00;1.70;;;24.70;64.80;;;;;;4973554;28;20437;-52
2021/08/22 12:26:27;;;;;;;3.20;2.00;;;24.50;63.80;;;;;;4973981;28;20918;-49
2021/08/22 12:29:14;;;;;;;2.37;2.17;;;24.50;64.50;;;;;;4973493;28;20814;-52
2021/08/22 12:31:42;;;;;;;2.40;2.20;;;24.50;65.00;;;;;;4972733;28;20434;-51
2021/08/22 12:34:15;;;;;;;3.20;3.00;;;24.40;64.30;;;;;;4974189;28;20485;-51
2021/08/22 12:36:42;;;;;;;3.40;2.50;;;24.50;64.70;;;;;;4971542;28;20438;-52
2021/08/22 12:39:10;;;;;;;4.30;3.90;;;24.50;64.90;;;;;;4973769;28;20485;-51
2021/08/22 12:41:46;;;;;;;3.27;2.97;;;24.40;65.30;;;;;;4972744;28;20489;-50
2021/08/22 12:44:20;;;;;;;3.33;2.70;;;24.40;65.80;;;;;;4973597;28;20488;-51
2021/08/22 12:46:49;;;;;;;2.60;2.30;;;24.30;65.80;;;;;;4973084;28;20422;-52
2021/08/22 12:49:15;;;;;;;3.00;2.80;;;24.40;66.60;;;;;;4973551;28;20560;-49
2021/08/22 12:52:09;;;;;;;3.47;3.17;;;24.20;66.40;;;;;;4977219;28;20426;-51
2021/08/22 12:54:36;;;;;;;3.13;2.40;;;24.20;66.50;;;;;;4972325;28;20939;-52
2021/08/22 12:57:03;;;;;;;3.47;3.17;;;24.20;66.90;;;;;;4972915;28;20427;-50